Time;durP1;ratioP1;P1;durP2;ratioP2;P2;SDS_P1;SDS_P2;PMS_P1;PMS_P2;Temp;Humidity;BMP_temperature;BMP_pressure;BME280_temperature;BME280_humidity;BME280_pressure;Samples;Min_cycle;Max_cycle;Signal;HPM_P1;HPM_P2
2023/06/19 00:01:47;;;;;;;9.25;7.07;;;;;;;27.04;40.56;95797.06;6136027;23;20032;-90
2023/06/19 00:04:13;;;;;;;8.48;7.43;;;;;;;27.31;40.28;95790.53;6135880;23;20005;-89
2023/06/19 00:06:38;;;;;;;8.73;7.05;;;;;;;27.28;40.40;95791.09;6136107;23;20005;-89
2023/06/19 00:09:04;;;;;;;9.77;7.30;;;;;;;27.24;40.65;95801.63;6160710;23;20005;-90
2023/06/19 00:11:30;;;;;;;12.38;7.20;;;;;;;27.17;40.72;95792.22;6135945;23;20001;-89
2023/06/19 00:13:56;;;;;;;10.35;6.82;;;;;;;27.06;40.79;95801.38;6135901;23;20141;-89
2023/06/19 00:16:27;;;;;;;10.80;7.30;;;;;;;27.20;41.14;95797.88;6135845;23;20009;-90
2023/06/19 00:18:55;;;;;;;11.80;7.57;;;;;;;26.91;41.91;95797.63;6136569;23;20033;-90
2023/06/19 00:21:25;;;;;;;9.90;7.40;;;;;;;26.90;42.41;95798.72;6161159;23;20009;-89
2023/06/19 00:23:52;;;;;;;9.57;7.28;;;;;;;26.96;42.37;95796.81;6135228;23;20086;-88
2023/06/19 00:26:22;;;;;;;8.63;6.75;;;;;;;26.83;43.22;95795.50;6135999;23;20463;-90
2023/06/19 00:28:49;;;;;;;11.38;7.10;;;;;;;26.98;42.82;95802.75;6160830;23;20390;-89
2023/06/19 00:31:16;;;;;;;11.93;6.95;;;;;;;26.86;43.29;95802.22;6136696;23;20029;-90
2023/06/19 00:33:44;;;;;;;11.05;7.65;;;;;;;26.87;43.33;95798.47;6136531;23;20015;-89
2023/06/19 00:36:15;;;;;;;9.70;6.65;;;;;;;26.73;44.65;95798.22;6136540;23;20111;-89
2023/06/19 00:38:41;;;;;;;11.73;7.43;;;;;;;26.66;45.29;95801.22;6145034;23;19993;-90
2023/06/19 00:41:08;;;;;;;10.13;7.38;;;;;;;26.32;47.08;95811.69;6135654;23;20008;-89
2023/06/19 00:43:42;;;;;;;10.00;7.93;;;;;;;26.31;47.97;95812.78;6136154;23;20008;-89
2023/06/19 00:46:09;;;;;;;9.77;7.00;;;;;;;26.28;48.58;95807.91;6136234;23;20012;-90
2023/06/19 00:48:35;;;;;;;10.00;7.60;;;;;;;26.18;48.92;95811.41;6135877;23;20007;-89
2023/06/19 00:51:01;;;;;;;9.40;7.35;;;;;;;26.22;49.07;95808.97;6136351;23;20040;-89
2023/06/19 00:53:49;;;;;;;11.70;8.18;;;;;;;26.30;48.37;95805.78;6136490;23;20001;-89
2023/06/19 00:56:17;;;;;;;10.65;7.50;;;;;;;26.13;49.03;95810.63;6136336;23;20028;-89
2023/06/19 00:58:44;;;;;;;10.13;7.43;;;;;;;26.35;48.64;95811.16;6157936;23;20013;-89
2023/06/19 01:01:10;;;;;;;8.23;7.05;;;;;;;26.30;49.24;95820.06;6130974;23;20005;-89
2023/06/19 01:03:37;;;;;;;9.23;6.57;;;;;;;26.28;49.02;95818.69;6130207;23;20005;-90
2023/06/19 01:06:08;;;;;;;11.07;7.70;;;;;;;26.34;48.96;95818.44;6132301;23;20627;-90
2023/06/19 01:09:06;;;;;;;9.25;6.95;;;;;;;26.27;49.49;95822.47;6132643;23;20025;-89
2023/06/19 01:11:37;;;;;;;11.82;6.13;;;;;;;26.31;49.34;95820.84;6132456;23;20028;-89
2023/06/19 01:14:12;;;;;;;10.02;8.00;;;;;;;26.35;49.17;95821.94;6132606;23;20103;-89
2023/06/19 01:16:38;;;;;;;9.57;7.65;;;;;;;26.37;48.93;95822.47;6132532;23;20108;-89
2023/06/19 01:19:11;;;;;;;10.90;6.78;;;;;;;26.31;49.29;95828.94;6157146;23;20004;-89
2023/06/19 01:21:37;;;;;;;13.25;6.95;;;;;;;26.32;49.46;95825.16;6156777;23;20005;-89
2023/06/19 01:24:03;;;;;;;9.95;7.20;;;;;;;26.20;49.56;95825.44;6131670;23;20008;-89
2023/06/19 01:26:29;;;;;;;13.57;7.50;;;;;;;26.13;49.43;95829.47;6157310;23;20076;-89
2023/06/19 01:28:56;;;;;;;11.77;8.07;;;;;;;26.27;49.87;95817.09;6132894;23;20070;-89
2023/06/19 01:31:28;;;;;;;10.15;7.15;;;;;;;26.29;48.89;95821.13;6157232;23;20009;-89
2023/06/19 01:33:56;;;;;;;10.45;7.13;;;;;;;26.31;48.80;95823.56;6157256;23;20036;-89
2023/06/19 01:36:24;;;;;;;9.57;7.53;;;;;;;26.49;47.56;95828.47;6132744;23;20001;-88
2023/06/19 01:38:52;;;;;;;10.57;7.30;;;;;;;26.53;47.70;95826.84;6132888;23;20008;-89
2023/06/19 01:41:19;;;;;;;8.48;6.88;;;;;;;26.49;48.37;95833.84;6132670;23;20028;-89
2023/06/19 01:43:46;;;;;;;9.45;6.57;;;;;;;26.20;49.33;95833.53;6157265;23;20408;-89
2023/06/19 01:46:12;;;;;;;9.93;7.75;;;;;;;26.14;49.02;95831.09;6132228;23;20008;-88
2023/06/19 01:48:39;;;;;;;11.48;6.57;;;;;;;26.30;48.19;95830.84;6133033;23;20311;-89
2023/06/19 01:51:06;;;;;;;9.43;7.05;;;;;;;26.46;47.50;95841.59;6131640;23;20092;-89
2023/06/19 01:53:31;;;;;;;10.38;7.05;;;;;;;26.44;47.28;95833.81;6131900;23;20076;-88
2023/06/19 01:56:01;;;;;;;9.80;7.18;;;;;;;26.47;47.96;95830.59;6156821;23;20001;-89
2023/06/19 01:58:28;;;;;;;10.50;7.57;;;;;;;26.42;47.77;95833.25;6133133;23;20056;-89
2023/06/19 02:00:54;;;;;;;9.60;7.03;;;;;;;26.38;47.90;95840.25;6156817;23;20009;-89
2023/06/19 02:03:20;;;;;;;8.65;7.45;;;;;;;26.68;46.92;95836.78;6132037;23;20425;-89
2023/06/19 02:05:46;;;;;;;9.55;7.18;;;;;;;26.51;47.09;95839.75;6132849;23;20001;-89
2023/06/19 02:08:12;;;;;;;11.23;7.70;;;;;;;26.80;46.80;95833.81;6133022;23;20005;-89
2023/06/19 02:10:38;;;;;;;8.38;6.55;;;;;;;26.76;46.43;95840.81;6157548;23;20005;-89
2023/06/19 02:13:03;;;;;;;8.93;7.20;;;;;;;26.65;47.40;95839.22;6157283;23;20322;-89
2023/06/19 02:15:29;;;;;;;8.68;7.00;;;;;;;26.50;47.97;95840.03;6159776;23;20111;-89
2023/06/19 02:17:58;;;;;;;10.63;7.63;;;;;;;26.65;47.99;95834.63;6156886;23;20457;-89
2023/06/19 02:20:25;;;;;;;9.75;7.45;;;;;;;26.55;48.16;95835.44;6130567;23;20004;-89
2023/06/19 02:22:51;;;;;;;10.15;7.85;;;;;;;26.29;50.15;95844.56;6155747;23;20016;-89
2023/06/19 02:25:17;;;;;;;9.55;7.60;;;;;;;25.95;53.75;95853.13;6131095;23;20051;-89
2023/06/19 02:27:43;;;;;;;10.25;8.07;;;;;;;25.78;56.09;95856.03;6155355;23;20005;-89
2023/06/19 02:30:09;;;;;;;14.77;7.38;;;;;;;25.85;55.58;95869.28;6131623;23;20013;-89
2023/06/19 02:32:34;;;;;;;9.98;7.10;;;;;;;25.97;55.39;95872.56;6131806;23;20012;-89
2023/06/19 02:35:06;;;;;;;9.90;7.60;;;;;;;25.43;59.79;95889.03;6131218;23;20005;-89
2023/06/19 02:37:32;;;;;;;11.48;6.82;;;;;;;25.27;63.35;95888.13;6133732;23;20007;-89
2023/06/19 02:39:59;;;;;;;10.13;6.50;;;;;;;25.13;71.31;95885.06;6156246;23;20040;-89
2023/06/19 02:42:25;;;;;;;8.43;5.85;;;;;;;25.03;76.76;95889.56;6130678;23;20012;-91
2023/06/19 02:44:51;;;;;;;8.73;6.05;;;;;;;25.00;79.75;95907.03;6127416;23;20066;-90
2023/06/19 02:47:18;;;;;;;9.77;5.53;;;;;;;25.12;80.90;95896.91;6131628;23;20111;-90
2023/06/19 02:49:46;;;;;;;7.50;5.72;;;;;;;25.15;81.43;95904.47;6156132;23;20005;-89
2023/06/19 02:52:12;;;;;;;9.70;5.90;;;;;;;25.02;83.62;95904.09;6132001;23;20075;-89
2023/06/19 02:54:37;;;;;;;9.20;5.88;;;;;;;25.00;84.42;95907.03;6131582;23;20008;-90
2023/06/19 02:57:03;;;;;;;10.27;5.50;;;;;;;24.87;85.64;95913.66;6131582;23;20044;-89
2023/06/19 02:59:28;;;;;;;11.50;5.75;;;;;;;24.84;87.42;95919.53;6141821;23;20013;-89
2023/06/19 03:01:54;;;;;;;9.23;6.13;;;;;;;25.02;85.52;95918.34;6158244;23;20009;-89
2023/06/19 03:04:20;;;;;;;7.65;5.03;;;;;;;25.01;84.94;95910.53;6132631;23;20009;-88
2023/06/19 03:06:45;;;;;;;7.20;5.28;;;;;;;25.29;83.71;95901.34;6131883;23;20005;-89
2023/06/19 03:09:14;;;;;;;6.95;5.32;;;;;;;25.27;85.09;95906.16;6150404;23;20004;-89
2023/06/19 03:11:40;;;;;;;9.40;5.57;;;;;;;25.13;86.36;95898.53;6140412;23;20389;-89
2023/06/19 03:14:07;;;;;;;7.82;5.07;;;;;;;25.25;86.11;95905.59;6157568;23;20425;-89
2023/06/19 03:16:34;;;;;;;7.28;5.40;;;;;;;25.35;84.56;95900.25;6131379;23;20036;-89
2023/06/19 03:19:01;;;;;;;7.70;5.32;;;;;;;25.50;84.30;95910.31;6131608;23;20021;-89
2023/06/19 03:21:27;;;;;;;7.47;5.18;;;;;;;25.61;83.76;95910.09;6134961;23;20044;-89
2023/06/19 03:23:53;;;;;;;7.13;5.35;;;;;;;25.77;82.18;95910.97;6134230;23;20128;-89
2023/06/19 03:26:32;;;;;;;8.95;5.72;;;;;;;25.74;81.86;95910.69;6159329;23;20012;-89
2023/06/19 03:29:00;;;;;;;8.80;5.43;;;;;;;25.79;82.61;95916.13;6135060;23;20005;-90
2023/06/19 03:31:28;;;;;;;7.20;5.28;;;;;;;25.75;82.09;95920.38;6159811;23;20008;-89
2023/06/19 03:33:55;;;;;;;8.32;5.53;;;;;;;25.61;82.93;95923.56;6135322;23;20736;-89
2023/06/19 03:36:22;;;;;;;7.07;5.45;;;;;;;25.55;82.62;95927.31;6159571;23;20005;-89
2023/06/19 03:38:49;;;;;;;8.88;5.03;;;;;;;25.72;82.12;95921.75;6135114;23;20008;-89
2023/06/19 03:41:19;;;;;;;8.27;6.22;;;;;;;25.64;82.87;95927.63;6135757;23;20456;-86
2023/06/19 03:44:01;;;;;;;8.30;5.93;;;;;;;25.48;84.13;95926.72;6133536;23;20005;-85
2023/06/19 03:46:27;;;;;;;9.57;5.72;;;;;;;25.47;84.94;95927.00;6133783;23;20728;-85
2023/06/19 03:48:53;;;;;;;8.55;6.05;;;;;;;25.37;84.97;95925.06;6158433;23;20001;-85
2023/06/19 03:51:26;;;;;;;8.45;6.60;;;;;;;25.29;85.56;95930.94;6133585;23;20001;-85
2023/06/19 03:53:51;;;;;;;12.10;6.65;;;;;;;25.48;84.08;95932.09;6133434;23;20003;-85
2023/06/19 03:56:17;;;;;;;9.07;6.63;;;;;;;25.45;84.69;95926.44;6133934;23;20012;-84
2023/06/19 03:58:43;;;;;;;8.85;5.68;;;;;;;25.27;85.23;95936.56;6159648;23;20067;-85
2023/06/19 04:01:09;;;;;;;8.88;6.03;;;;;;;25.32;85.91;95936.59;6157976;23;20004;-85
2023/06/19 04:03:35;;;;;;;10.82;6.72;;;;;;;25.44;85.36;95935.59;6133310;23;20016;-85
2023/06/19 04:06:01;;;;;;;9.63;5.53;;;;;;;25.32;87.22;95944.69;6133656;23;20009;-85
2023/06/19 04:08:39;;;;;;;10.73;6.93;;;;;;;25.23;87.72;95945.44;6158222;23;20356;-85
2023/06/19 04:11:05;;;;;;;8.27;6.82;;;;;;;24.98;90.14;95954.88;6133395;23;20005;-83
2023/06/19 04:13:30;;;;;;;8.25;6.32;;;;;;;25.29;89.04;95945.19;6129842;23;20117;-83
2023/06/19 04:15:57;;;;;;;9.52;6.82;;;;;;;25.30;89.83;95952.19;6153803;23;20044;-84
2023/06/19 04:18:24;;;;;;;8.65;6.75;;;;;;;25.25;91.57;95959.41;6130565;23;20076;-82
2023/06/19 04:20:56;;;;;;;9.75;6.78;;;;;;;25.37;91.81;95957.34;6153829;23;20103;-83
2023/06/19 04:23:23;;;;;;;8.27;6.55;;;;;;;25.46;92.68;95958.50;6129194;23;20021;-82
2023/06/19 04:25:50;;;;;;;11.65;7.30;;;;;;;25.41;94.53;95963.84;6128850;23;20088;-82
2023/06/19 04:28:16;;;;;;;10.85;6.40;;;;;;;25.07;96.59;95966.00;6129163;23;20363;-82
2023/06/19 04:30:42;;;;;;;11.73;6.82;;;;;;;25.06;98.03;95954.44;6129015;23;20005;-83
2023/06/19 04:33:08;;;;;;;8.90;6.97;;;;;;;25.02;98.52;95964.09;6153344;23;20463;-83
2023/06/19 04:35:39;;;;;;;8.65;6.32;;;;;;;24.93;100.00;95965.63;6153521;23;20432;-82
2023/06/19 04:38:06;;;;;;;8.25;6.45;;;;;;;24.94;100.00;95968.03;6129321;23;20434;-83
2023/06/19 04:40:32;;;;;;;7.45;6.05;;;;;;;25.06;100.00;95964.38;6127286;23;20017;-82
2023/06/19 04:42:58;;;;;;;7.82;6.15;;;;;;;24.92;100.00;95959.44;6104885;23;20092;-83
2023/06/19 04:45:24;;;;;;;12.75;6.97;;;;;;;24.98;100.00;95968.34;6154065;23;20015;-82
2023/06/19 04:47:50;;;;;;;9.65;6.25;;;;;;;24.91;100.00;95970.44;6130634;23;20025;-83
2023/06/19 04:50:16;;;;;;;10.13;5.53;;;;;;;25.05;100.00;95973.50;6131380;23;20344;-83
2023/06/19 04:52:42;;;;;;;9.10;5.63;;;;;;;24.51;100.00;95979.75;6155080;23;20005;-83
2023/06/19 04:55:10;;;;;;;11.20;6.00;;;;;;;24.84;100.00;95984.09;6130684;23;20488;-83
2023/06/19 04:57:37;;;;;;;9.02;5.97;;;;;;;24.78;100.00;95976.22;6131062;23;20001;-83
2023/06/19 05:00:09;;;;;;;7.00;5.63;;;;;;;25.02;100.00;95982.91;6155187;23;20067;-82
2023/06/19 05:02:35;;;;;;;8.60;5.43;;;;;;;25.08;100.00;95989.13;6157805;23;20005;-82
2023/06/19 05:05:03;;;;;;;6.90;5.38;;;;;;;25.02;100.00;95988.28;6155660;23;20128;-82
2023/06/19 05:07:31;;;;;;;7.38;5.30;;;;;;;25.34;100.00;95990.97;6155006;23;20512;-83
2023/06/19 05:09:56;;;;;;;7.70;5.30;;;;;;;25.09;100.00;95996.16;6155699;23;20425;-83
2023/06/19 05:12:22;;;;;;;8.43;5.20;;;;;;;25.05;100.00;95995.03;6130653;23;20004;-83
2023/06/19 05:14:49;;;;;;;7.85;6.05;;;;;;;25.34;100.00;96006.31;6153761;23;20005;-83
2023/06/19 05:17:14;;;;;;;11.35;5.20;;;;;;;25.56;100.00;96004.31;6129260;23;20028;-83
2023/06/19 05:19:40;;;;;;;8.20;4.80;;;;;;;25.39;100.00;96011.75;6130657;23;20004;-83
2023/06/19 05:22:06;;;;;;;6.53;4.78;;;;;;;25.32;100.00;96011.16;6132565;23;20028;-83
2023/06/19 05:24:32;;;;;;;7.18;5.20;;;;;;;25.03;100.00;96008.75;6130818;23;20028;-83
2023/06/19 05:26:58;;;;;;;7.13;5.15;;;;;;;25.47;100.00;96016.66;6161764;23;20029;-83
2023/06/19 05:29:25;;;;;;;8.45;5.05;;;;;;;25.45;100.00;96016.09;6132311;23;20904;-83
2023/06/19 05:31:51;;;;;;;7.60;4.95;;;;;;;25.17;100.00;96004.56;6130560;23;20009;-83
2023/06/19 05:34:17;;;;;;;7.22;5.03;;;;;;;25.35;100.00;96005.25;6155034;23;20449;-83
2023/06/19 05:36:45;;;;;;;9.60;5.28;;;;;;;25.04;100.00;95998.78;6156732;23;20468;-84
2023/06/19 05:39:10;;;;;;;7.30;5.00;;;;;;;25.03;100.00;96008.75;6130595;23;20417;-84
2023/06/19 05:41:36;;;;;;;7.55;4.70;;;;;;;25.24;100.00;96009.75;6130014;23;20009;-83
2023/06/19 05:44:01;;;;;;;5.97;4.50;;;;;;;25.76;100.00;96003.63;6130172;23;20302;-83
2023/06/19 05:46:27;;;;;;;9.45;4.93;;;;;;;25.39;100.00;96007.19;6130126;23;20056;-83
2023/06/19 05:48:54;;;;;;;6.78;4.80;;;;;;;25.67;100.00;96015.16;6131308;23;20030;-83
2023/06/19 05:51:20;;;;;;;7.55;4.50;;;;;;;25.41;100.00;96012.28;6154763;23;20445;-83
2023/06/19 05:53:46;;;;;;;7.38;5.25;;;;;;;25.72;100.00;96021.41;6154612;23;20009;-83
2023/06/19 05:56:12;;;;;;;6.25;4.82;;;;;;;26.00;100.00;96012.13;6154518;23;20005;-83
2023/06/19 05:58:39;;;;;;;7.25;5.05;;;;;;;25.93;100.00;96021.53;6181951;23;20011;-83
2023/06/19 06:01:05;;;;;;;8.38;4.95;;;;;;;25.84;100.00;96023.91;6130740;23;20029;-83
2023/06/19 06:03:30;;;;;;;6.97;5.00;;;;;;;26.04;100.00;96025.91;6130232;23;20032;-83
2023/06/19 06:06:02;;;;;;;7.65;5.10;;;;;;;25.93;100.00;96027.75;6154783;23;20008;-83
2023/06/19 06:08:31;;;;;;;10.55;5.45;;;;;;;25.96;100.00;96027.22;6155138;23;20005;-82
2023/06/19 06:10:56;;;;;;;8.45;4.95;;;;;;;26.07;100.00;96030.75;6154563;23;20009;-82
2023/06/19 06:13:22;;;;;;;8.55;5.03;;;;;;;26.30;100.00;96033.03;6154534;23;20005;-83
2023/06/19 06:15:48;;;;;;;6.50;4.85;;;;;;;26.04;100.00;96032.09;6153786;23;20005;-82
2023/06/19 06:18:13;;;;;;;7.40;5.57;;;;;;;26.26;100.00;96036.53;6153943;23;20083;-83
2023/06/19 06:20:39;;;;;;;8.18;4.90;;;;;;;26.21;100.00;96033.78;6154077;23;20083;-82
2023/06/19 06:23:05;;;;;;;7.85;4.60;;;;;;;26.23;100.00;96028.97;6154905;23;20457;-82
2023/06/19 06:25:30;;;;;;;7.30;4.82;;;;;;;26.53;100.00;96029.09;6129993;23;20330;-82
2023/06/19 06:27:56;;;;;;;8.25;5.18;;;;;;;26.98;97.63;96027.53;6130118;23;20001;-83
2023/06/19 06:30:22;;;;;;;6.07;4.60;;;;;;;27.08;98.41;96031.34;6130519;23;20008;-83
2023/06/19 06:32:48;;;;;;;7.10;4.68;;;;;;;26.30;100.00;96040.31;6129528;23;20067;-84
2023/06/19 06:35:13;;;;;;;7.32;4.45;;;;;;;26.52;100.00;96040.94;6130527;23;20449;-83
2023/06/19 06:37:40;;;;;;;7.03;4.32;;;;;;;26.55;100.00;96048.50;6154907;23;20005;-83
2023/06/19 06:40:09;;;;;;;9.05;5.43;;;;;;;26.40;100.00;96053.81;6129723;23;20004;-83
2023/06/19 06:42:35;;;;;;;6.30;4.28;;;;;;;26.44;100.00;96070.28;6180973;23;20340;-83
2023/06/19 06:45:00;;;;;;;7.25;4.65;;;;;;;26.15;100.00;96067.97;6181060;23;20001;-84
2023/06/19 06:47:26;;;;;;;5.80;4.13;;;;;;;26.29;100.00;96068.31;6154536;23;20066;-83
2023/06/19 06:49:58;;;;;;;6.82;4.20;;;;;;;27.03;98.77;96059.94;6129530;23;20008;-84
2023/06/19 06:52:23;;;;;;;5.65;4.03;;;;;;;27.59;93.90;96059.16;6154484;23;20066;-83
2023/06/19 06:54:50;;;;;;;6.10;4.18;;;;;;;27.85;91.71;96053.78;6154491;23;20001;-83
2023/06/19 06:57:16;;;;;;;5.70;4.32;;;;;;;28.51;87.33;96050.06;6154091;23;20012;-83
2023/06/19 06:59:42;;;;;;;7.38;4.40;;;;;;;28.60;85.24;96051.09;6130286;23;20005;-84
2023/06/19 07:02:07;;;;;;;9.38;4.93;;;;;;;28.42;86.45;96053.34;6153666;23;20331;-83
2023/06/19 07:04:33;;;;;;;7.70;4.80;;;;;;;28.72;84.70;96056.19;6158014;23;20075;-83
2023/06/19 07:06:58;;;;;;;6.55;4.57;;;;;;;28.42;87.83;96049.84;6158049;23;20008;-83
2023/06/19 07:09:24;;;;;;;8.13;3.97;;;;;;;28.49;85.81;96061.16;6129992;23;20016;-83
2023/06/19 07:11:50;;;;;;;6.47;4.18;;;;;;;28.23;87.45;96056.91;6179935;23;20055;-83
2023/06/19 07:14:18;;;;;;;6.35;3.63;;;;;;;28.77;84.61;96065.09;6132180;23;20001;-84
2023/06/19 07:16:56;;;;;;;7.68;4.65;;;;;;;29.35;79.10;96064.47;6133095;23;20376;-84
2023/06/19 07:19:22;;;;;;;6.43;4.50;;;;;;;29.93;74.74;96071.84;6156036;23;20039;-83
2023/06/19 07:21:50;;;;;;;7.07;4.07;;;;;;;29.99;74.84;96065.25;6154018;23;20009;-84
2023/06/19 07:24:15;;;;;;;4.75;3.28;;;;;;;29.98;71.46;96071.75;6129418;23;20021;-84
2023/06/19 07:26:41;;;;;;;6.70;3.70;;;;;;;29.70;74.76;96071.50;6155628;23;20329;-84
2023/06/19 07:29:07;;;;;;;5.22;3.17;;;;;;;29.97;71.70;96078.28;6162042;23;19997;-84
2023/06/19 07:31:32;;;;;;;4.85;3.20;;;;;;;29.84;74.45;96080.56;6129463;23;20005;-84
2023/06/19 07:33:58;;;;;;;4.55;2.97;;;;;;;29.66;74.48;96073.16;6178974;23;20005;-84
2023/06/19 07:36:23;;;;;;;5.47;2.90;;;;;;;30.09;71.25;96086.06;6129882;23;20005;-84
2023/06/19 07:38:49;;;;;;;3.97;2.75;;;;;;;30.33;69.54;96083.38;6154631;23;20001;-84
2023/06/19 07:41:14;;;;;;;3.72;2.60;;;;;;;30.18;70.19;96079.75;6135998;23;20005;-84
2023/06/19 07:43:40;;;;;;;6.80;3.45;;;;;;;30.49;66.71;96080.19;6129639;23;20031;-84
2023/06/19 07:46:06;;;;;;;6.20;2.80;;;;;;;30.44;70.55;96082.94;6154114;23;20602;-84
2023/06/19 07:48:31;;;;;;;6.63;3.60;;;;;;;30.30;67.87;96077.41;6154717;23;20005;-83
2023/06/19 07:50:57;;;;;;;4.40;2.85;;;;;;;30.58;68.04;96072.19;6129673;23;20472;-83
2023/06/19 07:53:22;;;;;;;4.40;2.80;;;;;;;30.80;66.18;96079.03;6129050;23;19997;-84
2023/06/19 07:55:48;;;;;;;4.75;2.75;;;;;;;31.69;61.03;96069.00;6129080;23;20104;-84
2023/06/19 07:58:14;;;;;;;3.75;2.78;;;;;;;30.95;62.13;96081.50;6129325;23;20009;-83
2023/06/19 08:00:39;;;;;;;6.93;2.47;;;;;;;30.25;64.30;96073.97;6154249;23;20063;-84
2023/06/19 08:03:05;;;;;;;3.97;2.45;;;;;;;29.84;69.84;96075.16;6154288;23;20005;-84
2023/06/19 08:05:31;;;;;;;3.10;2.15;;;;;;;29.95;69.39;96075.06;6129330;23;20012;-83
2023/06/19 08:07:58;;;;;;;3.58;2.30;;;;;;;29.55;71.17;96077.84;6129475;23;20011;-84
2023/06/19 08:10:24;;;;;;;3.95;2.15;;;;;;;28.85;74.80;96079.94;6128844;23;20005;-84
2023/06/19 08:12:49;;;;;;;3.70;2.22;;;;;;;28.71;77.08;96074.31;6153740;23;20328;-84
2023/06/19 08:15:15;;;;;;;3.25;1.88;;;;;;;29.76;71.06;96077.69;6154201;23;20001;-84
2023/06/19 08:17:42;;;;;;;2.88;2.00;;;;;;;29.86;70.82;96083.00;6134755;23;20019;-84
2023/06/19 08:20:09;;;;;;;3.78;2.08;;;;;;;29.74;69.59;96088.81;6129942;23;20366;-84
2023/06/19 08:22:35;;;;;;;3.58;2.25;;;;;;;29.72;69.98;96084.78;6155856;23;20012;-83
2023/06/19 08:25:02;;;;;;;4.30;2.92;;;;;;;29.93;70.12;96090.81;6155898;23;20401;-83
2023/06/19 08:27:27;;;;;;;4.95;2.05;;;;;;;29.50;71.52;96093.31;6156098;23;20005;-83
2023/06/19 08:29:53;;;;;;;2.60;2.05;;;;;;;31.74;59.10;96075.44;6158295;23;20107;-84
2023/06/19 08:32:19;;;;;;;4.60;2.28;;;;;;;32.23;55.14;96074.00;6155872;23;19997;-84
2023/06/19 08:34:44;;;;;;;5.30;2.25;;;;;;;32.48;52.14;96073.53;6131517;23;20436;-84
2023/06/19 08:37:10;;;;;;;5.32;2.42;;;;;;;33.85;48.06;96066.09;6154275;23;20005;-84
2023/06/19 08:39:37;;;;;;;2.83;1.88;;;;;;;32.91;49.49;96075.91;6153748;23;20020;-83
2023/06/19 08:42:07;;;;;;;5.15;2.40;;;;;;;33.73;44.78;96060.41;6130346;23;20004;-84
2023/06/19 08:44:36;;;;;;;3.70;2.10;;;;;;;34.94;41.52;96060.91;6155912;23;20008;-84
2023/06/19 08:47:03;;;;;;;2.97;2.15;;;;;;;34.41;41.90;96067.34;6156143;23;20017;-83
2023/06/19 08:49:34;;;;;;;3.20;1.95;;;;;;;34.07;42.30;96067.19;6155987;23;20009;-84
2023/06/19 08:52:01;;;;;;;3.85;1.90;;;;;;;34.82;40.48;96066.19;6130003;23;20429;-84
2023/06/19 08:54:27;;;;;;;2.00;1.80;;;;;;;35.25;39.21;96054.50;6155730;23;20459;-84
2023/06/19 08:56:53;;;;;;;4.97;2.30;;;;;;;35.31;38.82;96055.94;6155609;23;20012;-82
2023/06/19 08:59:20;;;;;;;2.78;2.28;;;;;;;35.11;39.05;96062.88;6156097;23;20009;-83
2023/06/19 09:01:53;;;;;;;4.60;2.00;;;;;;;34.97;39.67;96052.03;6130766;23;20024;-82
2023/06/19 09:04:26;;;;;;;3.95;2.15;;;;;;;35.49;37.79;96055.94;6156786;23;20009;-82
2023/06/19 09:07:03;;;;;;;3.97;2.40;;;;;;;34.69;39.96;96054.25;6131410;23;20326;-82
2023/06/19 09:09:36;;;;;;;8.65;2.15;;;;;;;34.37;39.32;96060.88;6131622;23;20076;-82
2023/06/19 09:12:05;;;;;;;4.10;1.80;;;;;;;35.74;37.32;96052.34;6130710;23;20401;-82
2023/06/19 09:14:38;;;;;;;2.83;1.77;;;;;;;35.38;36.68;96064.47;6155562;23;20024;-82
2023/06/19 09:17:05;;;;;;;3.45;2.03;;;;;;;35.00;37.59;96060.72;6156119;23;20479;-82
2023/06/19 09:19:34;;;;;;;2.10;1.75;;;;;;;34.82;38.39;96066.19;6129691;23;20032;-82
2023/06/19 09:22:05;;;;;;;2.63;2.05;;;;;;;34.69;38.54;96061.66;6154647;23;20084;-81
2023/06/19 09:24:35;;;;;;;5.20;2.03;;;;;;;33.38;40.70;96056.63;6170330;23;20024;-82
2023/06/19 09:27:17;;;;;;;3.75;1.77;;;;;;;32.81;42.60;96062.53;6150068;23;20451;-81
2023/06/19 09:29:47;;;;;;;4.22;2.30;;;;;;;33.38;42.66;96056.63;6172742;23;19993;-82
2023/06/19 09:32:21;;;;;;;2.90;2.10;;;;;;;32.77;43.44;96053.34;6135609;23;20009;-82
2023/06/19 09:34:53;;;;;;;2.58;1.83;;;;;;;32.04;45.17;96064.03;6157764;23;20016;-82
2023/06/19 09:37:24;;;;;;;2.78;1.70;;;;;;;31.66;45.35;96055.19;6137761;23;20385;-81
2023/06/19 09:39:55;;;;;;;2.53;1.85;;;;;;;31.73;46.34;96062.97;6183811;23;20008;-81
2023/06/19 09:42:32;;;;;;;2.50;1.88;;;;;;;31.67;47.09;96071.19;6134006;23;20012;-82
2023/06/19 09:45:10;;;;;;;2.63;1.75;;;;;;;31.68;44.96;96063.84;6159075;23;20407;-82
2023/06/19 09:47:51;;;;;;;3.30;2.05;;;;;;;31.88;43.73;96054.53;6185354;23;20009;-82
2023/06/19 09:50:17;;;;;;;3.35;2.17;;;;;;;32.91;43.28;96059.56;6133774;23;20008;-81
2023/06/19 09:52:51;;;;;;;2.50;1.80;;;;;;;33.27;41.41;96056.88;6134076;23;20001;-82
2023/06/19 09:55:18;;;;;;;2.63;1.70;;;;;;;35.09;37.39;96058.84;6184384;23;20314;-82
2023/06/19 09:57:45;;;;;;;3.10;2.38;;;;;;;35.29;36.73;96055.47;6130752;23;20025;-82
2023/06/19 10:00:12;;;;;;;2.67;1.90;;;;;;;35.78;35.34;96053.34;6187093;23;20324;-81
2023/06/19 10:02:43;;;;;;;2.40;1.90;;;;;;;35.62;36.11;96049.50;6158898;23;20009;-81
2023/06/19 10:05:12;;;;;;;3.38;2.00;;;;;;;35.09;36.98;96058.84;6134214;23;20031;-81
2023/06/19 10:07:40;;;;;;;2.78;2.00;;;;;;;34.60;36.68;96066.28;6134619;23;20009;-81
2023/06/19 10:10:08;;;;;;;4.00;1.70;;;;;;;34.87;37.51;96066.00;6158765;23;20005;-79
2023/06/19 10:12:38;;;;;;;3.03;2.10;;;;;;;34.67;36.30;96064.69;6158401;23;20009;-79
2023/06/19 10:15:20;;;;;;;3.35;2.22;;;;;;;35.96;35.52;96058.75;6133889;23;20033;-82
2023/06/19 10:17:51;;;;;;;2.90;2.03;;;;;;;35.57;36.56;96055.13;6158803;23;20001;-81
2023/06/19 10:20:33;;;;;;;2.92;2.13;;;;;;;36.32;34.72;96056.41;6158244;23;20001;-81
2023/06/19 10:22:58;;;;;;;;;;;;;;;36.27;34.39;96056.56;6129687;23;20001;-81
2023/06/19 10:25:27;;;;;;;2.72;1.73;;;;;;;36.90;33.57;96051.25;6132203;23;19958;-82
2023/06/19 10:27:54;;;;;;;2.92;2.08;;;;;;;36.41;33.94;96052.78;6134078;23;20401;-80
2023/06/19 10:30:25;;;;;;;3.45;2.15;;;;;;;36.20;34.02;96055.47;6132726;23;20055;-79
2023/06/19 10:32:51;;;;;;;3.25;2.20;;;;;;;36.53;33.25;96055.66;6133074;23;20005;-81
2023/06/19 10:35:17;;;;;;;1.98;1.70;;;;;;;37.01;32.21;96057.94;6158530;23;20475;-82
2023/06/19 10:37:44;;;;;;;2.88;2.00;;;;;;;37.10;31.57;96049.69;6132127;23;20337;-81
2023/06/19 10:40:12;;;;;;;3.22;2.20;;;;;;;37.16;32.29;96042.84;6131757;23;20004;-81
2023/06/19 10:42:38;;;;;;;2.80;1.95;;;;;;;37.60;30.76;96050.72;6157831;23;20001;-82
2023/06/19 10:45:05;;;;;;;3.00;2.00;;;;;;;37.05;32.65;96041.63;6133212;23;20009;-81
2023/06/19 10:47:33;;;;;;;2.53;1.90;;;;;;;36.93;32.47;96049.78;6157877;23;20456;-82
2023/06/19 10:49:58;;;;;;;2.85;1.90;;;;;;;35.15;34.13;96047.44;6158353;23;20009;-81
2023/06/19 10:52:24;;;;;;;3.75;2.28;;;;;;;36.64;32.48;96034.97;6132826;23;20472;-81
2023/06/19 10:54:54;;;;;;;3.88;1.88;;;;;;;37.09;32.87;96037.13;6133521;23;20012;-80
2023/06/19 10:57:27;;;;;;;4.13;2.45;;;;;;;37.34;32.30;96034.47;6133392;23;20012;-79
2023/06/19 10:59:53;;;;;;;3.17;2.10;;;;;;;36.85;32.88;96023.22;6158126;23;20437;-80
2023/06/19 11:02:18;;;;;;;3.45;2.10;;;;;;;37.03;33.52;96027.47;6157861;23;20008;-78
2023/06/19 11:04:44;;;;;;;3.75;2.25;;;;;;;36.94;32.62;96029.44;6157656;23;20040;-79
2023/06/19 11:07:10;;;;;;;4.47;2.30;;;;;;;37.52;32.47;96027.69;6184351;23;20079;-79
2023/06/19 11:09:36;;;;;;;4.07;2.17;;;;;;;37.15;32.63;96030.25;6133615;23;20031;-79
2023/06/19 11:12:07;;;;;;;4.65;2.38;;;;;;;36.70;32.67;96030.09;6132914;23;20335;-80
2023/06/19 11:14:39;;;;;;;4.03;2.40;;;;;;;35.52;34.05;96022.50;6133078;23;20016;-79
2023/06/19 11:17:07;;;;;;;2.58;2.28;;;;;;;36.08;33.54;96013.19;6184308;23;20001;-80
2023/06/19 11:19:37;;;;;;;2.65;2.00;;;;;;;35.65;33.15;96021.50;6133753;23;20084;-80
2023/06/19 11:22:04;;;;;;;2.45;1.92;;;;;;;35.78;33.53;96004.09;6183241;23;20031;-81
2023/06/19 11:24:29;;;;;;;2.83;1.77;;;;;;;35.33;33.43;96004.47;6129058;23;20005;-80
2023/06/19 11:26:58;;;;;;;2.85;1.88;;;;;;;34.92;35.17;96019.41;6154355;23;20020;-80
2023/06/19 11:29:34;;;;;;;2.83;1.88;;;;;;;35.01;34.66;96010.41;6154278;23;20021;-79
2023/06/19 11:32:09;;;;;;;3.10;2.20;;;;;;;35.22;34.37;96011.41;6130148;23;20437;-80
2023/06/19 11:34:38;;;;;;;4.18;2.20;;;;;;;34.64;34.82;96016.19;6153785;23;20472;-80